sensor_id;sensor_type;location;lat;lon;timestamp;temperature;humidity
53410;DHT22;66590;50.734;4.246;2023-03-14T00:00:12;11.60;99.90
53410;DHT22;66590;50.734;4.246;2023-03-14T00:02:40;11.50;99.90
53410;DHT22;66590;50.734;4.246;2023-03-14T00:05:09;11.40;99.90
53410;DHT22;66590;50.734;4.246;2023-03-14T00:07:37;11.30;99.90
53410;DHT22;66590;50.734;4.246;2023-03-14T00:10:06;11.20;99.90
53410;DHT22;66590;50.734;4.246;2023-03-14T00:12:33;11.20;99.90
53410;DHT22;66590;50.734;4.246;2023-03-14T00:15:01;11.20;99.90
53410;DHT22;66590;50.734;4.246;2023-03-14T00:17:28;11.30;99.90
53410;DHT22;66590;50.734;4.246;2023-03-14T00:19:56;11.30;99.90
53410;DHT22;66590;50.734;4.246;2023-03-14T00:22:23;11.30;99.90
53410;DHT22;66590;50.734;4.246;2023-03-14T00:24:50;11.40;99.90
53410;DHT22;66590;50.734;4.246;2023-03-14T00:27:18;11.30;99.90
53410;DHT22;66590;50.734;4.246;2023-03-14T00:29:45;11.20;99.90
53410;DHT22;66590;50.734;4.246;2023-03-14T00:32:12;11.30;99.90
53410;DHT22;66590;50.734;4.246;2023-03-14T00:34:39;11.40;99.90
53410;DHT22;66590;50.734;4.246;2023-03-14T00:37:07;11.40;99.90
53410;DHT22;66590;50.734;4.246;2023-03-14T00:39:34;11.60;99.90
53410;DHT22;66590;50.734;4.246;2023-03-14T00:42:01;11.50;99.90
53410;DHT22;66590;50.734;4.246;2023-03-14T00:44:28;11.50;99.90
53410;DHT22;66590;50.734;4.246;2023-03-14T00:46:55;11.40;99.90
53410;DHT22;66590;50.734;4.246;2023-03-14T00:49:22;11.30;99.90
53410;DHT22;66590;50.734;4.246;2023-03-14T00:51:49;11.10;99.90
53410;DHT22;66590;50.734;4.246;2023-03-14T00:54:18;11.10;99.90
53410;DHT22;66590;50.734;4.246;2023-03-14T00:56:45;11.20;99.90
53410;DHT22;66590;50.734;4.246;2023-03-14T00:59:12;11.30;99.90
53410;DHT22;66590;50.734;4.246;2023-03-14T01:01:39;11.20;99.90
53410;DHT22;66590;50.734;4.246;2023-03-14T01:04:06;11.20;99.90
53410;DHT22;66590;50.734;4.246;2023-03-14T01:06:33;11.30;99.90
53410;DHT22;66590;50.734;4.246;2023-03-14T01:09:01;11.40;99.90
53410;DHT22;66590;50.734;4.246;2023-03-14T01:11:31;11.30;99.90
53410;DHT22;66590;50.734;4.246;2023-03-14T01:13:59;11.30;99.90
53410;DHT22;66590;50.734;4.246;2023-03-14T01:16:28;11.20;99.90
53410;DHT22;66590;50.734;4.246;2023-03-14T01:18:55;11.20;99.90
53410;DHT22;66590;50.734;4.246;2023-03-14T01:21:24;11.20;99.90
53410;DHT22;66590;50.734;4.246;2023-03-14T01:23:52;11.20;99.90
53410;DHT22;66590;50.734;4.246;2023-03-14T01:26:21;11.10;99.90
53410;DHT22;66590;50.734;4.246;2023-03-14T01:28:54;11.20;99.90
53410;DHT22;66590;50.734;4.246;2023-03-14T01:31:22;11.30;99.90
53410;DHT22;66590;50.734;4.246;2023-03-14T01:33:50;11.10;99.90
53410;DHT22;66590;50.734;4.246;2023-03-14T01:36:17;11.10;99.90
53410;DHT22;66590;50.734;4.246;2023-03-14T01:38:45;10.90;99.90
53410;DHT22;66590;50.734;4.246;2023-03-14T01:41:14;10.80;99.90
53410;DHT22;66590;50.734;4.246;2023-03-14T01:43:42;10.80;99.90
53410;DHT22;66590;50.734;4.246;2023-03-14T01:49:11;10.50;99.90
53410;DHT22;66590;50.734;4.246;2023-03-14T01:51:44;10.40;99.90
53410;DHT22;66590;50.734;4.246;2023-03-14T01:54:18;10.30;99.90
53410;DHT22;66590;50.734;4.246;2023-03-14T01:56:51;10.20;99.90
53410;DHT22;66590;50.734;4.246;2023-03-14T01:59:19;10.10;99.90
53410;DHT22;66590;50.734;4.246;2023-03-14T02:01:48;10.00;99.90
53410;DHT22;66590;50.734;4.246;2023-03-14T02:04:17;9.90;99.90
53410;DHT22;66590;50.734;4.246;2023-03-14T02:06:52;10.00;99.90
53410;DHT22;66590;50.734;4.246;2023-03-14T02:09:21;9.90;99.90
53410;DHT22;66590;50.734;4.246;2023-03-14T02:11:49;10.00;99.90
53410;DHT22;66590;50.734;4.246;2023-03-14T02:14:27;10.00;99.90
53410;DHT22;66590;50.734;4.246;2023-03-14T02:16:57;9.90;99.90
53410;DHT22;66590;50.734;4.246;2023-03-14T02:19:35;10.00;99.90
53410;DHT22;66590;50.734;4.246;2023-03-14T02:22:08;10.00;99.90
53410;DHT22;66590;50.734;4.246;2023-03-14T02:24:40;10.20;99.90
53410;DHT22;66590;50.734;4.246;2023-03-14T02:27:12;10.20;99.90
53410;DHT22;66590;50.734;4.246;2023-03-14T02:29:45;10.00;99.90
53410;DHT22;66590;50.734;4.246;2023-03-14T02:32:15;10.00;99.90
53410;DHT22;66590;50.734;4.246;2023-03-14T02:34:45;9.90;99.90
53410;DHT22;66590;50.734;4.246;2023-03-14T02:37:15;9.90;99.90
53410;DHT22;66590;50.734;4.246;2023-03-14T02:39:44;10.00;99.90
53410;DHT22;66590;50.734;4.246;2023-03-14T02:42:13;10.00;99.90
53410;DHT22;66590;50.734;4.246;2023-03-14T02:44:52;10.00;99.90
53410;DHT22;66590;50.734;4.246;2023-03-14T02:47:22;9.90;99.90
53410;DHT22;66590;50.734;4.246;2023-03-14T02:49:58;9.90;99.90
53410;DHT22;66590;50.734;4.246;2023-03-14T02:52:25;10.00;99.90
53410;DHT22;66590;50.734;4.246;2023-03-14T02:54:52;9.90;99.90
53410;DHT22;66590;50.734;4.246;2023-03-14T02:57:21;9.80;99.90
53410;DHT22;66590;50.734;4.246;2023-03-14T02:59:48;9.80;99.90
53410;DHT22;66590;50.734;4.246;2023-03-14T03:02:15;9.80;99.90
53410;DHT22;66590;50.734;4.246;2023-03-14T03:04:42;10.00;99.90
53410;DHT22;66590;50.734;4.246;2023-03-14T03:07:09;10.20;99.90
53410;DHT22;66590;50.734;4.246;2023-03-14T03:09:36;10.40;99.90
53410;DHT22;66590;50.734;4.246;2023-03-14T03:12:03;10.40;99.90
53410;DHT22;66590;50.734;4.246;2023-03-14T03:14:32;10.50;99.90
53410;DHT22;66590;50.734;4.246;2023-03-14T03:16:59;10.60;99.90
53410;DHT22;66590;50.734;4.246;2023-03-14T03:19:26;10.50;99.90
53410;DHT22;66590;50.734;4.246;2023-03-14T03:21:53;10.40;99.90
53410;DHT22;66590;50.734;4.246;2023-03-14T03:24:20;10.50;99.90
53410;DHT22;66590;50.734;4.246;2023-03-14T03:26:47;10.50;99.90
53410;DHT22;66590;50.734;4.246;2023-03-14T03:29:17;10.40;99.90
53410;DHT22;66590;50.734;4.246;2023-03-14T03:31:45;10.40;99.90
53410;DHT22;66590;50.734;4.246;2023-03-14T03:34:12;10.30;99.90
53410;DHT22;66590;50.734;4.246;2023-03-14T03:36:40;10.30;99.90
53410;DHT22;66590;50.734;4.246;2023-03-14T03:39:08;10.30;99.90
53410;DHT22;66590;50.734;4.246;2023-03-14T03:41:35;10.30;99.90
53410;DHT22;66590;50.734;4.246;2023-03-14T03:44:02;10.30;99.90
53410;DHT22;66590;50.734;4.246;2023-03-14T03:46:29;10.40;99.90
53410;DHT22;66590;50.734;4.246;2023-03-14T03:48:58;10.30;99.90
53410;DHT22;66590;50.734;4.246;2023-03-14T03:51:26;10.30;99.90
53410;DHT22;66590;50.734;4.246;2023-03-14T03:53:53;10.40;99.90
53410;DHT22;66590;50.734;4.246;2023-03-14T03:56:20;10.40;99.90
53410;DHT22;66590;50.734;4.246;2023-03-14T03:58:47;10.30;99.90
53410;DHT22;66590;50.734;4.246;2023-03-14T04:01:14;10.30;99.90
53410;DHT22;66590;50.734;4.246;2023-03-14T04:03:42;10.40;99.90
53410;DHT22;66590;50.734;4.246;2023-03-14T04:06:12;10.40;99.90
53410;DHT22;66590;50.734;4.246;2023-03-14T04:08:40;10.40;99.90
53410;DHT22;66590;50.734;4.246;2023-03-14T04:11:07;10.30;99.90
53410;DHT22;66590;50.734;4.246;2023-03-14T04:13:34;10.30;99.90
53410;DHT22;66590;50.734;4.246;2023-03-14T04:16:01;10.40;99.90
53410;DHT22;66590;50.734;4.246;2023-03-14T04:18:29;10.20;99.90
53410;DHT22;66590;50.734;4.246;2023-03-14T04:20:57;10.40;99.90
53410;DHT22;66590;50.734;4.246;2023-03-14T04:23:25;10.50;99.90
53410;DHT22;66590;50.734;4.246;2023-03-14T04:25:53;10.50;99.90
53410;DHT22;66590;50.734;4.246;2023-03-14T04:28:20;10.70;99.90
53410;DHT22;66590;50.734;4.246;2023-03-14T04:30:47;10.60;99.90
53410;DHT22;66590;50.734;4.246;2023-03-14T04:33:14;10.60;99.90
53410;DHT22;66590;50.734;4.246;2023-03-14T04:35:41;10.70;99.90
53410;DHT22;66590;50.734;4.246;2023-03-14T04:38:08;10.70;99.90
53410;DHT22;66590;50.734;4.246;2023-03-14T04:40:38;10.60;99.90
53410;DHT22;66590;50.734;4.246;2023-03-14T04:43:05;10.60;99.90
53410;DHT22;66590;50.734;4.246;2023-03-14T04:45:32;10.50;99.90
53410;DHT22;66590;50.734;4.246;2023-03-14T04:47:59;10.30;99.90
53410;DHT22;66590;50.734;4.246;2023-03-14T04:50:26;10.30;99.90
53410;DHT22;66590;50.734;4.246;2023-03-14T04:52:53;10.40;99.90
53410;DHT22;66590;50.734;4.246;2023-03-14T04:55:20;10.40;99.90
53410;DHT22;66590;50.734;4.246;2023-03-14T04:57:51;10.40;99.90
53410;DHT22;66590;50.734;4.246;2023-03-14T05:00:18;10.60;99.90
53410;DHT22;66590;50.734;4.246;2023-03-14T05:02:45;10.60;99.90
53410;DHT22;66590;50.734;4.246;2023-03-14T05:05:12;10.50;99.90
53410;DHT22;66590;50.734;4.246;2023-03-14T05:07:40;10.40;99.90
53410;DHT22;66590;50.734;4.246;2023-03-14T05:10:07;10.40;99.90
53410;DHT22;66590;50.734;4.246;2023-03-14T05:12:34;10.30;99.90
53410;DHT22;66590;50.734;4.246;2023-03-14T05:15:04;10.40;99.90
53410;DHT22;66590;50.734;4.246;2023-03-14T05:17:32;10.30;99.90
53410;DHT22;66590;50.734;4.246;2023-03-14T05:19:59;10.40;99.90
53410;DHT22;66590;50.734;4.246;2023-03-14T05:22:26;10.30;99.90
53410;DHT22;66590;50.734;4.246;2023-03-14T05:24:54;10.30;99.90
53410;DHT22;66590;50.734;4.246;2023-03-14T05:27:21;10.30;99.90
53410;DHT22;66590;50.734;4.246;2023-03-14T05:29:48;10.20;99.90
53410;DHT22;66590;50.734;4.246;2023-03-14T05:32:16;10.30;99.90
53410;DHT22;66590;50.734;4.246;2023-03-14T05:34:43;10.20;99.90
53410;DHT22;66590;50.734;4.246;2023-03-14T05:37:10;10.20;99.90
53410;DHT22;66590;50.734;4.246;2023-03-14T05:39:37;10.20;99.90
53410;DHT22;66590;50.734;4.246;2023-03-14T05:42:04;10.30;99.90
53410;DHT22;66590;50.734;4.246;2023-03-14T05:44:31;10.30;99.90
53410;DHT22;66590;50.734;4.246;2023-03-14T05:46:58;10.20;99.90
53410;DHT22;66590;50.734;4.246;2023-03-14T05:49:26;10.20;99.90
53410;DHT22;66590;50.734;4.246;2023-03-14T05:51:53;10.20;99.90
53410;DHT22;66590;50.734;4.246;2023-03-14T05:54:20;10.30;99.90
53410;DHT22;66590;50.734;4.246;2023-03-14T05:56:47;10.20;99.90
53410;DHT22;66590;50.734;4.246;2023-03-14T05:59:14;10.20;99.90
53410;DHT22;66590;50.734;4.246;2023-03-14T06:01:41;10.20;99.90
53410;DHT22;66590;50.734;4.246;2023-03-14T06:04:09;10.30;99.90
53410;DHT22;66590;50.734;4.246;2023-03-14T06:06:37;10.30;99.90
53410;DHT22;66590;50.734;4.246;2023-03-14T06:09:08;10.20;99.90
53410;DHT22;66590;50.734;4.246;2023-03-14T06:11:35;10.20;99.90
53410;DHT22;66590;50.734;4.246;2023-03-14T06:14:05;10.10;99.90
53410;DHT22;66590;50.734;4.246;2023-03-14T06:16:32;10.10;99.90
53410;DHT22;66590;50.734;4.246;2023-03-14T06:18:59;10.10;99.90
53410;DHT22;66590;50.734;4.246;2023-03-14T06:21:26;10.00;99.90
53410;DHT22;66590;50.734;4.246;2023-03-14T06:23:55;10.00;99.90
53410;DHT22;66590;50.734;4.246;2023-03-14T06:26:22;10.10;99.90
53410;DHT22;66590;50.734;4.246;2023-03-14T06:28:49;10.10;99.90
53410;DHT22;66590;50.734;4.246;2023-03-14T06:31:16;10.20;99.90
53410;DHT22;66590;50.734;4.246;2023-03-14T06:33:43;10.10;99.90
53410;DHT22;66590;50.734;4.246;2023-03-14T06:36:11;10.10;99.90
53410;DHT22;66590;50.734;4.246;2023-03-14T06:38:38;10.00;99.90
53410;DHT22;66590;50.734;4.246;2023-03-14T06:41:07;10.00;99.90
53410;DHT22;66590;50.734;4.246;2023-03-14T06:43:34;10.00;99.90
53410;DHT22;66590;50.734;4.246;2023-03-14T06:46:01;9.90;99.90
53410;DHT22;66590;50.734;4.246;2023-03-14T06:48:28;9.50;99.90
53410;DHT22;66590;50.734;4.246;2023-03-14T06:50:56;8.90;99.90
53410;DHT22;66590;50.734;4.246;2023-03-14T06:53:24;8.70;99.90
53410;DHT22;66590;50.734;4.246;2023-03-14T06:55:54;8.50;99.90
53410;DHT22;66590;50.734;4.246;2023-03-14T06:58:22;8.40;99.90
53410;DHT22;66590;50.734;4.246;2023-03-14T07:00:49;8.20;99.90
53410;DHT22;66590;50.734;4.246;2023-03-14T07:03:16;8.20;99.90
53410;DHT22;66590;50.734;4.246;2023-03-14T07:05:43;8.10;99.90
53410;DHT22;66590;50.734;4.246;2023-03-14T07:08:10;7.90;99.90
53410;DHT22;66590;50.734;4.246;2023-03-14T07:10:37;7.90;99.90
53410;DHT22;66590;50.734;4.246;2023-03-14T07:13:04;7.80;99.90
53410;DHT22;66590;50.734;4.246;2023-03-14T07:15:33;7.60;99.90
53410;DHT22;66590;50.734;4.246;2023-03-14T07:18:00;7.60;99.90
53410;DHT22;66590;50.734;4.246;2023-03-14T07:20:27;7.50;99.90
53410;DHT22;66590;50.734;4.246;2023-03-14T07:22:54;7.50;99.90
53410;DHT22;66590;50.734;4.246;2023-03-14T07:25:21;7.50;99.90
53410;DHT22;66590;50.734;4.246;2023-03-14T07:27:48;7.50;99.90
53410;DHT22;66590;50.734;4.246;2023-03-14T07:30:16;7.50;99.90
53410;DHT22;66590;50.734;4.246;2023-03-14T07:32:45;7.50;99.90
53410;DHT22;66590;50.734;4.246;2023-03-14T07:35:12;7.40;99.90
53410;DHT22;66590;50.734;4.246;2023-03-14T07:37:39;7.50;99.90
53410;DHT22;66590;50.734;4.246;2023-03-14T07:40:07;7.40;99.90
53410;DHT22;66590;50.734;4.246;2023-03-14T07:42:34;7.40;99.90
53410;DHT22;66590;50.734;4.246;2023-03-14T07:45:02;7.50;99.90
53410;DHT22;66590;50.734;4.246;2023-03-14T07:47:29;7.60;99.90
53410;DHT22;66590;50.734;4.246;2023-03-14T07:49:59;7.60;99.90
53410;DHT22;66590;50.734;4.246;2023-03-14T07:52:26;7.60;99.90
53410;DHT22;66590;50.734;4.246;2023-03-14T07:54:53;7.70;99.90
53410;DHT22;66590;50.734;4.246;2023-03-14T07:57:21;7.60;99.90
53410;DHT22;66590;50.734;4.246;2023-03-14T07:59:48;7.50;99.90
53410;DHT22;66590;50.734;4.246;2023-03-14T08:02:16;7.50;99.90
53410;DHT22;66590;50.734;4.246;2023-03-14T08:04:43;7.40;99.90
53410;DHT22;66590;50.734;4.246;2023-03-14T08:07:11;7.30;99.90
53410;DHT22;66590;50.734;4.246;2023-03-14T08:09:38;7.30;99.90
53410;DHT22;66590;50.734;4.246;2023-03-14T08:12:06;7.30;99.90
53410;DHT22;66590;50.734;4.246;2023-03-14T08:14:33;7.30;99.90
53410;DHT22;66590;50.734;4.246;2023-03-14T08:17:00;7.30;99.90
53410;DHT22;66590;50.734;4.246;2023-03-14T08:19:27;7.30;99.90
53410;DHT22;66590;50.734;4.246;2023-03-14T08:21:55;7.30;99.90
53410;DHT22;66590;50.734;4.246;2023-03-14T08:24:24;7.30;99.90
53410;DHT22;66590;50.734;4.246;2023-03-14T08:26:50;7.30;99.90
53410;DHT22;66590;50.734;4.246;2023-03-14T08:29:17;7.30;99.90
53410;DHT22;66590;50.734;4.246;2023-03-14T08:31:45;7.20;99.90
53410;DHT22;66590;50.734;4.246;2023-03-14T08:34:12;7.20;99.90
53410;DHT22;66590;50.734;4.246;2023-03-14T08:36:45;7.20;99.90
53410;DHT22;66590;50.734;4.246;2023-03-14T08:39:12;7.10;99.90
53410;DHT22;66590;50.734;4.246;2023-03-14T08:41:41;7.10;99.90
53410;DHT22;66590;50.734;4.246;2023-03-14T08:44:14;7.10;99.90
53410;DHT22;66590;50.734;4.246;2023-03-14T08:46:46;7.20;99.90
53410;DHT22;66590;50.734;4.246;2023-03-14T08:49:19;7.20;99.90
53410;DHT22;66590;50.734;4.246;2023-03-14T08:51:46;7.20;99.90
53410;DHT22;66590;50.734;4.246;2023-03-14T08:54:20;7.10;99.90
53410;DHT22;66590;50.734;4.246;2023-03-14T08:56:49;7.10;99.90
53410;DHT22;66590;50.734;4.246;2023-03-14T08:59:22;7.00;99.90
53410;DHT22;66590;50.734;4.246;2023-03-14T09:01:50;6.80;99.90
53410;DHT22;66590;50.734;4.246;2023-03-14T09:04:23;6.70;99.90
53410;DHT22;66590;50.734;4.246;2023-03-14T09:06:50;6.70;99.90
53410;DHT22;66590;50.734;4.246;2023-03-14T09:09:24;6.70;99.90
53410;DHT22;66590;50.734;4.246;2023-03-14T09:11:54;6.60;99.90
53410;DHT22;66590;50.734;4.246;2023-03-14T09:14:27;6.60;99.90
53410;DHT22;66590;50.734;4.246;2023-03-14T09:16:54;6.70;99.90
53410;DHT22;66590;50.734;4.246;2023-03-14T09:19:28;6.70;99.90
53410;DHT22;66590;50.734;4.246;2023-03-14T09:21:55;6.80;99.90
53410;DHT22;66590;50.734;4.246;2023-03-14T09:24:22;6.90;99.90
53410;DHT22;66590;50.734;4.246;2023-03-14T09:26:58;6.80;99.90
53410;DHT22;66590;50.734;4.246;2023-03-14T09:29:25;7.00;99.90
53410;DHT22;66590;50.734;4.246;2023-03-14T09:31:59;7.00;99.90
53410;DHT22;66590;50.734;4.246;2023-03-14T09:34:26;7.00;99.90
53410;DHT22;66590;50.734;4.246;2023-03-14T09:37:02;7.10;99.90
53410;DHT22;66590;50.734;4.246;2023-03-14T09:39:29;7.00;99.90
53410;DHT22;66590;50.734;4.246;2023-03-14T09:42:06;6.90;99.90
53410;DHT22;66590;50.734;4.246;2023-03-14T09:44:37;6.90;99.90
53410;DHT22;66590;50.734;4.246;2023-03-14T09:47:13;7.00;99.90
53410;DHT22;66590;50.734;4.246;2023-03-14T09:49:41;7.20;99.90
53410;DHT22;66590;50.734;4.246;2023-03-14T09:52:15;7.20;99.90
53410;DHT22;66590;50.734;4.246;2023-03-14T09:54:45;7.20;99.90
53410;DHT22;66590;50.734;4.246;2023-03-14T09:57:24;7.20;99.90
53410;DHT22;66590;50.734;4.246;2023-03-14T09:59:54;7.30;99.90
53410;DHT22;66590;50.734;4.246;2023-03-14T10:02:34;7.30;99.90
53410;DHT22;66590;50.734;4.246;2023-03-14T10:05:07;7.30;99.90
53410;DHT22;66590;50.734;4.246;2023-03-14T10:07:41;7.30;99.90
53410;DHT22;66590;50.734;4.246;2023-03-14T10:10:11;7.40;99.90
53410;DHT22;66590;50.734;4.246;2023-03-14T10:12:52;7.40;99.90
53410;DHT22;66590;50.734;4.246;2023-03-14T10:15:25;7.50;99.90
53410;DHT22;66590;50.734;4.246;2023-03-14T10:18:00;7.40;99.90
53410;DHT22;66590;50.734;4.246;2023-03-14T10:20:33;7.40;99.90
53410;DHT22;66590;50.734;4.246;2023-03-14T10:23:22;7.50;99.90
53410;DHT22;66590;50.734;4.246;2023-03-14T10:26:00;7.60;99.90
53410;DHT22;66590;50.734;4.246;2023-03-14T10:28:42;7.40;99.90
53410;DHT22;66590;50.734;4.246;2023-03-14T10:31:09;7.30;99.90
53410;DHT22;66590;50.734;4.246;2023-03-14T10:33:57;7.40;99.90
53410;DHT22;66590;50.734;4.246;2023-03-14T10:36:27;7.60;99.90
53410;DHT22;66590;50.734;4.246;2023-03-14T10:39:22;7.60;99.90
53410;DHT22;66590;50.734;4.246;2023-03-14T10:41:51;7.40;99.90
53410;DHT22;66590;50.734;4.246;2023-03-14T10:44:28;7.50;99.90
53410;DHT22;66590;50.734;4.246;2023-03-14T10:46:58;7.60;99.90
53410;DHT22;66590;50.734;4.246;2023-03-14T10:49:33;7.70;99.90
53410;DHT22;66590;50.734;4.246;2023-03-14T10:52:02;7.70;99.90
53410;DHT22;66590;50.734;4.246;2023-03-14T10:54:47;7.80;99.90
53410;DHT22;66590;50.734;4.246;2023-03-14T10:57:15;7.60;99.90
53410;DHT22;66590;50.734;4.246;2023-03-14T10:59:51;7.60;99.90
53410;DHT22;66590;50.734;4.246;2023-03-14T11:02:43;7.60;99.90
53410;DHT22;66590;50.734;4.246;2023-03-14T11:05:28;7.70;99.90
53410;DHT22;66590;50.734;4.246;2023-03-14T11:08:01;7.50;99.90
53410;DHT22;66590;50.734;4.246;2023-03-14T11:10:35;7.40;99.90
53410;DHT22;66590;50.734;4.246;2023-03-14T11:13:14;7.40;99.90
53410;DHT22;66590;50.734;4.246;2023-03-14T11:16:01;7.40;99.90
53410;DHT22;66590;50.734;4.246;2023-03-14T11:21:33;7.30;99.90
53410;DHT22;66590;50.734;4.246;2023-03-14T11:27:07;7.10;99.90
53410;DHT22;66590;50.734;4.246;2023-03-14T11:29:39;7.10;99.90
53410;DHT22;66590;50.734;4.246;2023-03-14T11:32:13;7.00;99.90
53410;DHT22;66590;50.734;4.246;2023-03-14T11:34:49;7.00;99.90
53410;DHT22;66590;50.734;4.246;2023-03-14T11:37:23;6.90;99.90
53410;DHT22;66590;50.734;4.246;2023-03-14T11:39:59;6.80;99.90
53410;DHT22;66590;50.734;4.246;2023-03-14T11:42:27;6.70;99.90
53410;DHT22;66590;50.734;4.246;2023-03-14T11:44:55;6.60;99.90
53410;DHT22;66590;50.734;4.246;2023-03-14T11:47:26;6.40;99.90
53410;DHT22;66590;50.734;4.246;2023-03-14T11:50:00;6.30;99.90
53410;DHT22;66590;50.734;4.246;2023-03-14T11:52:30;6.30;99.90
53410;DHT22;66590;50.734;4.246;2023-03-14T11:55:02;6.30;99.90
53410;DHT22;66590;50.734;4.246;2023-03-14T11:57:31;6.40;99.90
53410;DHT22;66590;50.734;4.246;2023-03-14T12:00:01;6.20;99.90
53410;DHT22;66590;50.734;4.246;2023-03-14T12:02:40;6.20;99.90
53410;DHT22;66590;50.734;4.246;2023-03-14T12:05:37;6.20;99.90
53410;DHT22;66590;50.734;4.246;2023-03-14T12:08:28;6.00;99.90
53410;DHT22;66590;50.734;4.246;2023-03-14T12:11:00;6.00;99.90
53410;DHT22;66590;50.734;4.246;2023-03-14T12:13:29;5.90;99.90
53410;DHT22;66590;50.734;4.246;2023-03-14T12:16:00;5.80;99.90
53410;DHT22;66590;50.734;4.246;2023-03-14T12:18:34;5.70;99.90
53410;DHT22;66590;50.734;4.246;2023-03-14T12:21:04;5.60;99.90
53410;DHT22;66590;50.734;4.246;2023-03-14T12:23:37;5.60;99.90
53410;DHT22;66590;50.734;4.246;2023-03-14T12:26:14;5.50;99.90
53410;DHT22;66590;50.734;4.246;2023-03-14T12:28:44;5.60;99.90
53410;DHT22;66590;50.734;4.246;2023-03-14T12:31:41;5.60;99.90
53410;DHT22;66590;50.734;4.246;2023-03-14T12:34:31;5.50;99.90
53410;DHT22;66590;50.734;4.246;2023-03-14T12:37:14;5.60;99.90
53410;DHT22;66590;50.734;4.246;2023-03-14T12:39:56;5.50;99.90
53410;DHT22;66590;50.734;4.246;2023-03-14T12:42:38;5.70;99.90
53410;DHT22;66590;50.734;4.246;2023-03-14T12:45:22;5.70;99.90
53410;DHT22;66590;50.734;4.246;2023-03-14T12:48:01;5.50;99.90
53410;DHT22;66590;50.734;4.246;2023-03-14T12:50:43;5.50;99.90
53410;DHT22;66590;50.734;4.246;2023-03-14T12:53:42;5.60;99.90
53410;DHT22;66590;50.734;4.246;2023-03-14T12:56:38;5.50;99.90
53410;DHT22;66590;50.734;4.246;2023-03-14T12:59:30;5.50;99.90
53410;DHT22;66590;50.734;4.246;2023-03-14T13:02:01;5.50;99.90
53410;DHT22;66590;50.734;4.246;2023-03-14T13:04:32;5.50;99.90
53410;DHT22;66590;50.734;4.246;2023-03-14T13:07:13;5.50;99.90
53410;DHT22;66590;50.734;4.246;2023-03-14T13:09:55;5.50;99.90
53410;DHT22;66590;50.734;4.246;2023-03-14T13:12:37;5.40;99.90
53410;DHT22;66590;50.734;4.246;2023-03-14T13:15:15;5.50;99.90
53410;DHT22;66590;50.734;4.246;2023-03-14T13:17:45;5.60;99.90
53410;DHT22;66590;50.734;4.246;2023-03-14T13:20:18;5.60;99.90
53410;DHT22;66590;50.734;4.246;2023-03-14T13:22:49;5.70;99.90
53410;DHT22;66590;50.734;4.246;2023-03-14T13:25:17;5.70;99.90
53410;DHT22;66590;50.734;4.246;2023-03-14T13:27:44;5.70;99.90
53410;DHT22;66590;50.734;4.246;2023-03-14T13:30:22;5.70;99.90
53410;DHT22;66590;50.734;4.246;2023-03-14T13:32:50;5.60;99.90
53410;DHT22;66590;50.734;4.246;2023-03-14T13:35:22;5.60;99.90
53410;DHT22;66590;50.734;4.246;2023-03-14T13:37:55;5.60;99.90
53410;DHT22;66590;50.734;4.246;2023-03-14T13:40:37;5.50;99.90
53410;DHT22;66590;50.734;4.246;2023-03-14T13:43:14;5.40;99.90
53410;DHT22;66590;50.734;4.246;2023-03-14T13:45:51;5.30;99.90
53410;DHT22;66590;50.734;4.246;2023-03-14T13:48:19;5.30;99.90
53410;DHT22;66590;50.734;4.246;2023-03-14T13:50:54;5.30;99.90
53410;DHT22;66590;50.734;4.246;2023-03-14T13:53:24;5.30;99.90
53410;DHT22;66590;50.734;4.246;2023-03-14T13:55:51;5.20;99.90
53410;DHT22;66590;50.734;4.246;2023-03-14T13:58:26;5.30;99.90
53410;DHT22;66590;50.734;4.246;2023-03-14T14:01:02;5.20;99.90
53410;DHT22;66590;50.734;4.246;2023-03-14T14:03:32;5.20;99.90
53410;DHT22;66590;50.734;4.246;2023-03-14T14:06:01;5.20;99.90
53410;DHT22;66590;50.734;4.246;2023-03-14T14:08:30;5.10;99.90
53410;DHT22;66590;50.734;4.246;2023-03-14T14:10:59;5.10;99.90
53410;DHT22;66590;50.734;4.246;2023-03-14T14:13:31;4.90;99.90
53410;DHT22;66590;50.734;4.246;2023-03-14T14:16:00;4.90;99.90
53410;DHT22;66590;50.734;4.246;2023-03-14T14:18:30;5.10;99.90
53410;DHT22;66590;50.734;4.246;2023-03-14T14:20:58;5.30;99.90
53410;DHT22;66590;50.734;4.246;2023-03-14T14:23:27;5.40;99.90
53410;DHT22;66590;50.734;4.246;2023-03-14T14:25:57;5.50;99.90
53410;DHT22;66590;50.734;4.246;2023-03-14T14:28:26;5.60;99.90
53410;DHT22;66590;50.734;4.246;2023-03-14T14:31:15;5.60;99.90
53410;DHT22;66590;50.734;4.246;2023-03-14T14:33:44;5.70;99.90
53410;DHT22;66590;50.734;4.246;2023-03-14T14:36:18;5.80;99.90
53410;DHT22;66590;50.734;4.246;2023-03-14T14:38:50;5.80;99.90
53410;DHT22;66590;50.734;4.246;2023-03-14T14:41:19;5.90;99.90
53410;DHT22;66590;50.734;4.246;2023-03-14T14:43:46;5.80;99.90
53410;DHT22;66590;50.734;4.246;2023-03-14T14:46:18;5.80;99.90
53410;DHT22;66590;50.734;4.246;2023-03-14T14:48:46;5.80;99.90
53410;DHT22;66590;50.734;4.246;2023-03-14T14:51:23;5.90;99.90
53410;DHT22;66590;50.734;4.246;2023-03-14T14:54:02;5.90;99.90
53410;DHT22;66590;50.734;4.246;2023-03-14T14:56:36;5.90;99.90
53410;DHT22;66590;50.734;4.246;2023-03-14T14:59:04;5.80;99.90
53410;DHT22;66590;50.734;4.246;2023-03-14T15:01:34;5.80;99.90
53410;DHT22;66590;50.734;4.246;2023-03-14T15:04:03;5.70;99.90
53410;DHT22;66590;50.734;4.246;2023-03-14T15:06:31;5.20;99.90
53410;DHT22;66590;50.734;4.246;2023-03-14T15:08:58;5.00;99.90
53410;DHT22;66590;50.734;4.246;2023-03-14T15:11:26;4.80;99.90
53410;DHT22;66590;50.734;4.246;2023-03-14T15:13:54;4.80;99.90
53410;DHT22;66590;50.734;4.246;2023-03-14T15:16:23;4.90;99.90
53410;DHT22;66590;50.734;4.246;2023-03-14T15:18:55;5.00;99.90
53410;DHT22;66590;50.734;4.246;2023-03-14T15:21:23;5.10;99.90
53410;DHT22;66590;50.734;4.246;2023-03-14T15:23:51;5.30;99.90
53410;DHT22;66590;50.734;4.246;2023-03-14T15:26:21;5.60;99.90
53410;DHT22;66590;50.734;4.246;2023-03-14T15:28:49;5.80;99.90
53410;DHT22;66590;50.734;4.246;2023-03-14T15:31:19;6.00;99.90
53410;DHT22;66590;50.734;4.246;2023-03-14T15:33:46;6.20;99.90
53410;DHT22;66590;50.734;4.246;2023-03-14T15:36:21;6.00;99.90
53410;DHT22;66590;50.734;4.246;2023-03-14T15:38:48;6.10;99.90
53410;DHT22;66590;50.734;4.246;2023-03-14T15:41:15;6.20;99.90
53410;DHT22;66590;50.734;4.246;2023-03-14T15:43:42;6.30;99.90
53410;DHT22;66590;50.734;4.246;2023-03-14T15:46:10;6.30;99.90
53410;DHT22;66590;50.734;4.246;2023-03-14T15:48:38;6.20;99.90
53410;DHT22;66590;50.734;4.246;2023-03-14T15:51:06;6.10;99.90
53410;DHT22;66590;50.734;4.246;2023-03-14T15:53:33;6.00;99.90
53410;DHT22;66590;50.734;4.246;2023-03-14T15:56:00;6.10;99.90
53410;DHT22;66590;50.734;4.246;2023-03-14T15:58:27;6.20;99.90
53410;DHT22;66590;50.734;4.246;2023-03-14T16:00:54;6.30;99.90
53410;DHT22;66590;50.734;4.246;2023-03-14T16:03:21;6.20;99.90
53410;DHT22;66590;50.734;4.246;2023-03-14T16:05:50;6.00;99.90
53410;DHT22;66590;50.734;4.246;2023-03-14T16:08:17;5.90;99.90